^^
Station Historical Data
Daily Summary for July 21, 2021 Units:  English    Metric   Both
Daily Weekly Monthly Yearly
  High: Low: Average:
Temperature: 71.6 °F 65.2 °F 67.6 °F
Dew Point: 60 °F 52.8 °F 57.1 °F
Humidity: 82% 52% 70%
Wind Speed: 5mph 3mph 3.4mph
Wind Gust: 10mph - -
Wind- - ESE
Pressure: 30.13 in 30.00 in -
Precipitation: 0.00 in    
 
 
Tabular Data for July 21, 2021
Time Temperature Dew Point Pressure Wind Wind Speed Wind Gust Humidity Rainfall Rate (Hourly) solar
00:00 65.6 °F 60 °F 30.00 in NW 4 mph 4 mph 82% 0.00 in 0 W/m2
00:05 65.5 °F 59.5 °F 30.01 in ENE 4 mph 4 mph 81% 0.00 in 0 W/m2
00:10 65.5 °F 59.2 °F 30.01 in SE 4 mph 4 mph 80% 0.00 in 0 W/m2
00:15 65.4 °F 59.1 °F 30.01 in NNE 4 mph 4 mph 80% 0.00 in 0 W/m2
00:20 65.5 °F 59.5 °F 30.01 in ESE 4 mph 4 mph 81% 0.00 in 0 W/m2
00:25 65.4 °F 59.1 °F 30.01 in NE 4 mph 4 mph 80% 0.00 in 0 W/m2
00:30 65.5 °F 59.5 °F 30.01 in NNW 3 mph 3 mph 81% 0.00 in 0 W/m2
00:35 65.6 °F 59.6 °F 30.01 in East 3 mph 6 mph 81% 0.00 in 0 W/m2
00:40 65.5 °F 59.2 °F 30.01 in ENE 4 mph 4 mph 80% 0.00 in 0 W/m2
00:45 65.4 °F 57.6 °F 30.01 in East 5 mph 5 mph 76% 0.00 in 0 W/m2
00:50 65.3 °F 57.2 °F 30.01 in NE 5 mph 5 mph 75% 0.00 in 0 W/m2
00:55 65.4 °F 57.3 °F 30.01 in North 5 mph 5 mph 75% 0.00 in 0 W/m2
01:00 65.5 °F 57 °F 30.01 in ESE 5 mph 5 mph 74% 0.00 in 0 W/m2
01:05 65.4 °F 56.5 °F 30.01 in NNE 5 mph 8 mph 73% 0.00 in 0 W/m2
01:10 65.5 °F 57.4 °F 30.01 in East 4 mph 6 mph 75% 0.00 in 0 W/m2
01:15 65.5 °F 57.7 °F 30.01 in ENE 4 mph 6 mph 76% 0.00 in 0 W/m2
01:20 65.6 °F 57.8 °F 30.01 in ENE 4 mph 7 mph 76% 0.00 in 0 W/m2
01:25 65.5 °F 57.4 °F 30.01 in NE 3 mph 7 mph 75% 0.00 in 0 W/m2
01:30 65.4 °F 57.3 °F 30.01 in ENE 3 mph 4 mph 75% 0.00 in 0 W/m2
01:35 65.4 °F 56.9 °F 30.01 in NE 4 mph 10 mph 74% 0.00 in 0 W/m2
01:40 65.4 °F 57.3 °F 30.01 in ENE 4 mph 4 mph 75% 0.00 in 0 W/m2
01:45 65.4 °F 57.3 °F 30.01 in East 4 mph 4 mph 75% 0.00 in 0 W/m2
01:50 65.4 °F 56.9 °F 30.01 in NW 4 mph 4 mph 74% 0.00 in 0 W/m2
01:55 65.4 °F 56.9 °F 30.01 in East 3 mph 4 mph 74% 0.00 in 0 W/m2
02:00 65.4 °F 56.9 °F 30.01 in North 4 mph 4 mph 74% 0.00 in 0 W/m2
02:05 65.4 °F 56.9 °F 30.01 in East 4 mph 4 mph 74% 0.00 in 0 W/m2
02:10 65.4 °F 57.3 °F 30.01 in East 4 mph 4 mph 75% 0.00 in 0 W/m2
02:15 65.3 °F 56.8 °F 30.01 in North 4 mph 4 mph 74% 0.00 in 0 W/m2
02:20 65.2 °F 56.7 °F 30.01 in ENE 4 mph 10 mph 74% 0.00 in 0 W/m2
02:25 65.3 °F 56.8 °F 30.01 in North 4 mph 10 mph 74% 0.00 in 0 W/m2
02:30 65.3 °F 56.4 °F 30.00 in North 4 mph 4 mph 73% 0.00 in 0 W/m2
02:35 65.3 °F 56.8 °F 30.01 in ENE 4 mph 4 mph 74% 0.00 in 0 W/m2
02:40 65.3 °F 56 °F 30.01 in ESE 4 mph 5 mph 72% 0.00 in 0 W/m2
02:45 65.3 °F 56 °F 30.00 in ENE 4 mph 5 mph 72% 0.00 in 0 W/m2
02:50 65.3 °F 55.3 °F 30.00 in North 4 mph 4 mph 70% 0.00 in 0 W/m2
02:55 65.4 °F 56.5 °F 30.01 in SE 4 mph 4 mph 73% 0.00 in 0 W/m2
03:00 65.4 °F 56.1 °F 30.00 in East 4 mph 4 mph 72% 0.00 in 0 W/m2
03:05 65.5 °F 56.2 °F 30.00 in NNW 4 mph 4 mph 72% 0.00 in 0 W/m2
03:10 65.5 °F 56.2 °F 30.00 in ENE 4 mph 4 mph 72% 0.00 in 0 W/m2
03:15 65.6 °F 56.3 °F 30.00 in ENE 4 mph 5 mph 72% 0.00 in 0 W/m2
03:20 65.7 °F 56.4 °F 30.00 in East 4 mph 6 mph 72% 0.00 in 0 W/m2
03:25 65.7 °F 56.4 °F 30.00 in East 3 mph 6 mph 72% 0.00 in 0 W/m2
03:30 65.8 °F 56.5 °F 30.00 in ENE 3 mph 6 mph 72% 0.00 in 0 W/m2
03:35 65.7 °F 56 °F 30.00 in East 4 mph 6 mph 71% 0.00 in 0 W/m2
03:40 65.8 °F 56.1 °F 30.00 in NNE 4 mph 4 mph 71% 0.00 in 0 W/m2
03:45 65.8 °F 56.5 °F 30.00 in NNW 4 mph 4 mph 72% 0.00 in 0 W/m2
03:50 65.7 °F 56 °F 30.00 in East 3 mph 3 mph 71% 0.00 in 0 W/m2
03:55 65.8 °F 55.7 °F 30.00 in ENE 3 mph 3 mph 70% 0.00 in 0 W/m2
04:00 65.8 °F 56.5 °F 30.00 in NE 3 mph 4 mph 72% 0.00 in 0 W/m2
04:05 65.7 °F 56 °F 30.00 in East 3 mph 4 mph 71% 0.00 in 0 W/m2
04:10 65.6 °F 55.2 °F 30.01 in North 4 mph 4 mph 69% 0.00 in 0 W/m2
04:15 65.6 °F 55.9 °F 30.01 in NNW 3 mph 7 mph 71% 0.00 in 0 W/m2
04:20 65.7 °F 56.4 °F 30.01 in NE 3 mph 5 mph 72% 0.00 in 0 W/m2
04:25 65.6 °F 55.9 °F 30.01 in NE 3 mph 5 mph 71% 0.00 in 0 W/m2
04:30 65.6 °F 55.9 °F 30.01 in NE 3 mph 6 mph 71% 0.00 in 0 W/m2
04:35 65.5 °F 55.8 °F 30.01 in East 3 mph 6 mph 71% 0.00 in 0 W/m2
04:40 65.6 °F 56.3 °F 30.01 in NNE 3 mph 5 mph 72% 0.00 in 0 W/m2
04:45 65.5 °F 56.2 °F 30.01 in East 3 mph 5 mph 72% 0.00 in 0 W/m2
04:50 65.5 °F 56.2 °F 30.01 in NE 3 mph 3 mph 72% 0.00 in 0 W/m2
04:55 65.5 °F 56.6 °F 30.01 in East 3 mph 3 mph 73% 0.00 in 0 W/m2
05:00 65.5 °F 56.6 °F 30.01 in NW 3 mph 5 mph 73% 0.00 in 0 W/m2
05:05 65.5 °F 56.2 °F 30.01 in ESE 3 mph 5 mph 72% 0.00 in 0 W/m2
05:10 65.5 °F 55.8 °F 30.01 in NW 3 mph 3 mph 71% 0.00 in 0 W/m2
05:15 65.4 °F 56.1 °F 30.01 in East 3 mph 3 mph 72% 0.00 in 0 W/m2
05:20 65.4 °F 55.7 °F 30.01 in NNE 3 mph 3 mph 71% 0.00 in 0 W/m2
05:25 65.4 °F 55.4 °F 30.02 in NE 3 mph 3 mph 70% 0.00 in 0 W/m2
05:30 65.3 °F 55.7 °F 30.02 in East 3 mph 3 mph 71% 0.00 in 0 W/m2
05:35 65.4 °F 55.7 °F 30.02 in ESE 3 mph 3 mph 71% 0.00 in 0 W/m2
05:40 65.4 °F 55.7 °F 30.02 in ENE 3 mph 3 mph 71% 0.00 in 0 W/m2
05:45 65.5 °F 55.8 °F 30.02 in NE 3 mph 5 mph 71% 0.00 in 0 W/m2
05:50 65.5 °F 56.2 °F 30.02 in ESE 3 mph 5 mph 72% 0.00 in 0 W/m2
05:55 65.5 °F 56.2 °F 30.03 in ESE 3 mph 5 mph 72% 0.00 in 0 W/m2
06:00 65.5 °F 55.8 °F 30.03 in ENE 3 mph 3 mph 71% 0.00 in 0 W/m2
06:05 65.4 °F 55.4 °F 30.03 in WNW 3 mph 3 mph 70% 0.00 in 0 W/m2
06:10 65.4 °F 55.7 °F 30.03 in ENE 3 mph 5 mph 71% 0.00 in 5 W/m2
06:15 65.4 °F 55.7 °F 30.03 in SSW 3 mph 5 mph 71% 0.00 in 7 W/m2
06:20 65.4 °F 55.7 °F 30.03 in ENE 3 mph 3 mph 71% 0.00 in 9 W/m2
06:25 65.4 °F 55.7 °F 30.03 in NE 3 mph 3 mph 71% 0.00 in 12 W/m2
06:30 65.4 °F 55.4 °F 30.04 in NW 3 mph 4 mph 70% 0.00 in 16 W/m2
06:35 65.4 °F 55.4 °F 30.04 in SE 3 mph 4 mph 70% 0.00 in 18 W/m2
06:40 65.5 °F 55.5 °F 30.04 in ENE 3 mph 3 mph 70% 0.00 in 19 W/m2
06:45 65.6 °F 55.5 °F 30.04 in NNE 3 mph 3 mph 70% 0.00 in 25 W/m2
06:50 65.5 °F 55.5 °F 30.04 in NNE 3 mph 3 mph 70% 0.00 in 26 W/m2
06:55 65.6 °F 56.7 °F 30.04 in NNW 3 mph 6 mph 73% 0.00 in 33 W/m2
07:00 65.8 °F 57.7 °F 30.04 in North 3 mph 3 mph 75% 0.00 in 30 W/m2
07:05 65.8 °F 58 °F 30.04 in NNW 3 mph 8 mph 76% 0.00 in 33 W/m2
07:10 65.7 °F 57.6 °F 30.05 in SE 3 mph 3 mph 75% 0.00 in 32 W/m2
07:15 65.6 °F 57.8 °F 30.05 in SE 3 mph 3 mph 76% 0.00 in 33 W/m2
07:20 65.6 °F 57.8 °F 30.05 in NE 3 mph 3 mph 76% 0.00 in 33 W/m2
07:25 65.6 °F 57.8 °F 30.05 in NE 3 mph 3 mph 76% 0.00 in 35 W/m2
07:30 65.6 °F 58.2 °F 30.05 in NE 3 mph 3 mph 77% 0.00 in 35 W/m2
07:35 65.6 °F 58.2 °F 30.06 in NW 3 mph 3 mph 77% 0.00 in 47 W/m2
07:40 65.6 °F 58.2 °F 30.06 in NE 3 mph 4 mph 77% 0.00 in 39 W/m2
07:45 65.6 °F 58.2 °F 30.06 in WNW 4 mph 4 mph 77% 0.00 in 39 W/m2
07:50 65.6 °F 58.2 °F 30.06 in North 3 mph 3 mph 77% 0.00 in 40 W/m2
07:55 65.5 °F 58.1 °F 30.06 in North 3 mph 3 mph 77% 0.00 in 40 W/m2
08:00 65.6 °F 58.6 °F 30.06 in ESE 3 mph 3 mph 78% 0.00 in 53 W/m2
08:05 65.6 °F 58.2 °F 30.06 in NW 3 mph 3 mph 77% 0.00 in 44 W/m2
08:10 65.6 °F 58.2 °F 30.06 in NW 4 mph 7 mph 77% 0.00 in 60 W/m2
08:15 65.7 °F 57.9 °F 30.06 in ENE 4 mph 7 mph 76% 0.00 in 70 W/m2
08:20 65.8 °F 58.4 °F 30.07 in NE 3 mph 3 mph 77% 0.00 in 283 W/m2
08:25 65.9 °F 58.5 °F 30.07 in NE 3 mph 3 mph 77% 0.00 in 297 W/m2
08:30 65.9 °F 58.1 °F 30.07 in West 3 mph 3 mph 76% 0.00 in 313 W/m2
08:35 66 °F 58.2 °F 30.07 in NE 4 mph 4 mph 76% 0.00 in 323 W/m2
08:40 66.1 °F 58.3 °F 30.07 in ESE 3 mph 3 mph 76% 0.00 in 339 W/m2
08:45 66.2 °F 58.4 °F 30.07 in NE 3 mph 3 mph 76% 0.00 in 353 W/m2
08:50 66.3 °F 58.5 °F 30.07 in South 3 mph 3 mph 76% 0.00 in 367 W/m2
08:55 66.3 °F 58.1 °F 30.08 in ENE 3 mph 3 mph 75% 0.00 in 383 W/m2
09:00 66.4 °F 57.9 °F 30.08 in ENE 3 mph 3 mph 74% 0.00 in 396 W/m2
09:05 66.5 °F 58 °F 30.08 in WSW 3 mph 3 mph 74% 0.00 in 410 W/m2
09:10 66.6 °F 58.1 °F 30.08 in ENE 3 mph 3 mph 74% 0.00 in 422 W/m2
09:15 66.7 °F 58.5 °F 30.08 in NNE 3 mph 3 mph 75% 0.00 in 438 W/m2
09:20 66.8 °F 59 °F 30.09 in NE 3 mph 3 mph 76% 0.00 in 452 W/m2
09:25 67 °F 58.4 °F 30.09 in ENE 3 mph 3 mph 74% 0.00 in 466 W/m2
09:30 67 °F 58.8 °F 30.09 in NE 3 mph 4 mph 75% 0.00 in 482 W/m2
09:35 67 °F 58.1 °F 30.09 in East 4 mph 4 mph 73% 0.00 in 494 W/m2
09:40 67.1 °F 58.2 °F 30.09 in North 4 mph 4 mph 73% 0.00 in 510 W/m2
09:45 67.2 °F 58.2 °F 30.09 in NNE 3 mph 4 mph 73% 0.00 in 524 W/m2
09:50 67.3 °F 58.7 °F 30.09 in NW 3 mph 6 mph 74% 0.00 in 536 W/m2
09:55 67.4 °F 58.8 °F 30.09 in WNW 4 mph 6 mph 74% 0.00 in 545 W/m2
10:00 67.4 °F 58.4 °F 30.10 in North 4 mph 9 mph 73% 0.00 in 563 W/m2
10:05 67.5 °F 59.3 °F 30.10 in ENE 3 mph 9 mph 75% 0.00 in 575 W/m2
10:10 67.6 °F 58.6 °F 30.09 in North 3 mph 10 mph 73% 0.00 in 589 W/m2
10:15 67.7 °F 59.1 °F 30.10 in NNE 3 mph 10 mph 74% 0.00 in 598 W/m2
10:20 67.7 °F 59.1 °F 30.10 in SE 4 mph 4 mph 74% 0.00 in 615 W/m2
10:25 67.8 °F 59.2 °F 30.10 in NE 4 mph 4 mph 74% 0.00 in 622 W/m2
10:30 67.9 °F 58.1 °F 30.10 in NE 4 mph 4 mph 71% 0.00 in 636 W/m2
10:35 68 °F 58.6 °F 30.10 in NE 4 mph 6 mph 72% 0.00 in 649 W/m2
10:40 68 °F 57.8 °F 30.10 in NNE 4 mph 4 mph 70% 0.00 in 661 W/m2
10:45 68.1 °F 57.9 °F 30.10 in NNW 4 mph 4 mph 70% 0.00 in 673 W/m2
10:50 68.2 °F 58.4 °F 30.10 in NNE 4 mph 10 mph 71% 0.00 in 682 W/m2
10:55 68.3 °F 58.9 °F 30.11 in North 4 mph 10 mph 72% 0.00 in 691 W/m2
11:00 68.3 °F 58.9 °F 30.11 in NNE 4 mph 4 mph 72% 0.00 in 705 W/m2
11:05 68.3 °F 58.1 °F 30.11 in North 4 mph 4 mph 70% 0.00 in 714 W/m2
11:10 68.4 °F 58.6 °F 30.11 in NE 3 mph 3 mph 71% 0.00 in 722 W/m2
11:15 68.5 °F 57.9 °F 30.11 in NE 3 mph 3 mph 69% 0.00 in 737 W/m2
11:20 68.5 °F 58.7 °F 30.11 in ENE 3 mph 3 mph 71% 0.00 in 744 W/m2
11:25 68.6 °F 58.8 °F 30.11 in ENE 3 mph 6 mph 71% 0.00 in 756 W/m2
11:30 68.6 °F 58.4 °F 30.11 in North 4 mph 4 mph 70% 0.00 in 759 W/m2
11:35 68.7 °F 58.9 °F 30.11 in NNE 3 mph 4 mph 71% 0.00 in 772 W/m2
11:40 68.8 °F 58.2 °F 30.12 in ENE 4 mph 4 mph 69% 0.00 in 780 W/m2
11:45 68.8 °F 57.8 °F 30.12 in NNE 4 mph 6 mph 68% 0.00 in 784 W/m2
11:50 68.8 °F 58.2 °F 30.12 in NE 4 mph 4 mph 69% 0.00 in 795 W/m2
11:55 68.9 °F 58.3 °F 30.12 in NE 3 mph 5 mph 69% 0.00 in 805 W/m2
12:00 69 °F 58.4 °F 30.12 in NE 3 mph 3 mph 69% 0.00 in 810 W/m2
12:05 69.2 °F 59 °F 30.12 in ENE 3 mph 5 mph 70% 0.00 in 821 W/m2
12:10 69.3 °F 58.7 °F 30.12 in ENE 3 mph 5 mph 69% 0.00 in 828 W/m2
12:15 69.4 °F 58 °F 30.12 in East 3 mph 5 mph 67% 0.00 in 837 W/m2
12:20 69.5 °F 57.6 °F 30.12 in ENE 3 mph 4 mph 66% 0.00 in 844 W/m2
12:25 69.6 °F 57.7 °F 30.12 in West 3 mph 4 mph 66% 0.00 in 851 W/m2
12:30 69.9 °F 58.4 °F 30.12 in NE 3 mph 3 mph 67% 0.00 in 854 W/m2
12:35 70.2 °F 57 °F 30.12 in NNE 3 mph 4 mph 63% 0.00 in 860 W/m2
12:40 70.4 °F 57.6 °F 30.13 in North 3 mph 4 mph 64% 0.00 in 865 W/m2
12:45 70.4 °F 57.2 °F 30.13 in NNE 3 mph 4 mph 63% 0.00 in 868 W/m2
12:50 70.3 °F 57.5 °F 30.12 in NE 3 mph 3 mph 64% 0.00 in 874 W/m2
12:55 70.4 °F 57.2 °F 30.12 in NNW 4 mph 4 mph 63% 0.00 in 877 W/m2
13:00 70.5 °F 55.9 °F 30.13 in East 3 mph 3 mph 60% 0.00 in 884 W/m2
13:05 70.7 °F 57 °F 30.12 in NNW 3 mph 8 mph 62% 0.00 in 886 W/m2
13:10 70.8 °F 56.7 °F 30.12 in North 3 mph 3 mph 61% 0.00 in 888 W/m2
13:15 70.9 °F 56.8 °F 30.13 in NE 4 mph 4 mph 61% 0.00 in 895 W/m2
13:20 71 °F 56.4 °F 30.12 in SE 3 mph 3 mph 60% 0.00 in 893 W/m2
13:25 71.3 °F 56.7 °F 30.12 in East 3 mph 6 mph 60% 0.00 in 895 W/m2
13:30 71.3 °F 57.6 °F 30.12 in NE 3 mph 3 mph 62% 0.00 in 896 W/m2
13:35 71 °F 56.9 °F 30.12 in East 3 mph 3 mph 61% 0.00 in 898 W/m2
13:40 71.1 °F 57.9 °F 30.12 in East 3 mph 3 mph 63% 0.00 in 898 W/m2
13:45 71.3 °F 58.1 °F 30.12 in North 3 mph 3 mph 63% 0.00 in 896 W/m2
13:50 71.2 °F 58.4 °F 30.12 in ENE 3 mph 3 mph 64% 0.00 in 900 W/m2
13:55 71.1 °F 57.9 °F 30.12 in NNE 3 mph 7 mph 63% 0.00 in 904 W/m2
14:00 70.8 °F 57.6 °F 30.12 in NNW 3 mph 6 mph 63% 0.00 in 896 W/m2
14:05 71 °F 58.2 °F 30.12 in North 3 mph 6 mph 64% 0.00 in 900 W/m2
14:10 71 °F 58.2 °F 30.12 in NE 3 mph 4 mph 64% 0.00 in 896 W/m2
14:15 70.8 °F 57.1 °F 30.12 in NNW 3 mph 4 mph 62% 0.00 in 895 W/m2
14:20 71 °F 57.3 °F 30.12 in NNE 3 mph 3 mph 62% 0.00 in 893 W/m2
14:25 70.9 °F 57.2 °F 30.12 in ENE 3 mph 4 mph 62% 0.00 in 888 W/m2
14:30 70.6 °F 56.9 °F 30.12 in North 3 mph 3 mph 62% 0.00 in 884 W/m2
14:35 70.7 °F 57 °F 30.12 in NE 3 mph 4 mph 62% 0.00 in 884 W/m2
14:40 71 °F 57.3 °F 30.12 in NNE 3 mph 3 mph 62% 0.00 in 879 W/m2
14:45 70.9 °F 57.7 °F 30.12 in ENE 3 mph 3 mph 63% 0.00 in 874 W/m2
14:50 70.8 °F 56.2 °F 30.12 in ENE 3 mph 3 mph 60% 0.00 in 868 W/m2
14:55 70.8 °F 56.7 °F 30.12 in NW 3 mph 5 mph 61% 0.00 in 867 W/m2
15:00 70.9 °F 56.8 °F 30.12 in NE 3 mph 3 mph 61% 0.00 in 865 W/m2
15:05 70.6 °F 56.5 °F 30.12 in NE 3 mph 7 mph 61% 0.00 in 854 W/m2
15:10 70.2 °F 56.6 °F 30.12 in East 3 mph 3 mph 62% 0.00 in 851 W/m2
15:15 70.5 °F 56.9 °F 30.12 in ESE 4 mph 4 mph 62% 0.00 in 844 W/m2
15:20 70.7 °F 57 °F 30.12 in East 3 mph 5 mph 62% 0.00 in 838 W/m2
15:25 70.9 °F 57.2 °F 30.12 in WNW 3 mph 5 mph 62% 0.00 in 831 W/m2
15:30 70.1 °F 56.5 °F 30.12 in ENE 3 mph 7 mph 62% 0.00 in 824 W/m2
15:35 69.7 °F 56.1 °F 30.12 in North 4 mph 7 mph 62% 0.00 in 819 W/m2
15:40 69.8 °F 56.2 °F 30.12 in ENE 4 mph 4 mph 62% 0.00 in 809 W/m2
15:45 70.1 °F 55.1 °F 30.11 in NE 4 mph 4 mph 59% 0.00 in 803 W/m2
15:50 70.1 °F 56 °F 30.11 in ENE 3 mph 3 mph 61% 0.00 in 795 W/m2
15:55 70.3 °F 55.8 °F 30.12 in East 3 mph 6 mph 60% 0.00 in 789 W/m2
16:00 70.8 °F 55.8 °F 30.12 in ESE 3 mph 5 mph 59% 0.00 in 780 W/m2
16:05 71 °F 55.9 °F 30.12 in ENE 3 mph 5 mph 59% 0.00 in 763 W/m2
16:10 70.8 °F 56.2 °F 30.11 in ENE 3 mph 3 mph 60% 0.00 in 752 W/m2
16:15 70.7 °F 56.1 °F 30.12 in East 3 mph 3 mph 60% 0.00 in 742 W/m2
16:20 70.2 °F 56.1 °F 30.11 in ENE 3 mph 4 mph 61% 0.00 in 721 W/m2
16:25 70.2 °F 55.2 °F 30.11 in East 3 mph 4 mph 59% 0.00 in 710 W/m2
16:30 70.4 °F 54.9 °F 30.11 in NNE 4 mph 4 mph 58% 0.00 in 700 W/m2
16:35 70.6 °F 55.1 °F 30.11 in SE 4 mph 4 mph 58% 0.00 in 693 W/m2
16:40 70.7 °F 55.7 °F 30.11 in WNW 4 mph 4 mph 59% 0.00 in 682 W/m2
16:45 70.9 °F 54.4 °F 30.11 in NNW 4 mph 4 mph 56% 0.00 in 670 W/m2
16:50 71 °F 55 °F 30.11 in ENE 4 mph 9 mph 57% 0.00 in 647 W/m2
16:55 71.2 °F 54.7 °F 30.11 in NNE 4 mph 9 mph 56% 0.00 in 635 W/m2
17:00 71.4 °F 54.9 °F 30.11 in NNE 3 mph 7 mph 56% 0.00 in 622 W/m2
17:05 71.5 °F 54.5 °F 30.11 in ESE 3 mph 7 mph 55% 0.00 in 612 W/m2
17:10 71.5 °F 54.5 °F 30.11 in East 3 mph 6 mph 55% 0.00 in 603 W/m2
17:15 71.6 °F 54.1 °F 30.11 in ENE 4 mph 6 mph 54% 0.00 in 582 W/m2
17:20 71.6 °F 53.6 °F 30.11 in East 3 mph 4 mph 53% 0.00 in 563 W/m2
17:25 71.5 °F 54 °F 30.10 in East 3 mph 4 mph 54% 0.00 in 552 W/m2
17:30 71.3 °F 53.3 °F 30.11 in NNE 4 mph 4 mph 53% 0.00 in 536 W/m2
17:35 71.3 °F 52.8 °F 30.11 in East 4 mph 6 mph 52% 0.00 in 515 W/m2
Sand Point, Michigan, USA
Compliments of Weather Underground - 2 mb